Rockdale, Texas
Current Conditions -  °F | °C
As of 8:55 AM on Friday 19 Dec 2014 (Local Time) from KT35 Reporting Station
Overcast Overcast  
Wind Chill:   Ceiling: 6000
Heat Index:   Visibility: 10mi
Dew Point:   Wind: 3mph
Humidity: 96%   Direction: 40°NE
Pressure: 30.13"   Gusts: NA
Location:  30.66°N, 97°W
Report Text: KT35 191455Z AUTO 04003KT 10SM SCT005 OVC060 09/09 A3013 RMK AO2 60006 T00930087
Loading
Personal Weather Stations






























Interactive Weather Map New forecast layout! Learn more

10-Day Weather Forecast

Advertisements
Track Severe Weather on mobile